Terminal Aerodrome Forecast
Issued by NWS Burlington, VT

Home | Current Version | Previous Version | Text Only | Print | Product List | Glossary On
Versions: 1 2 3 4 5 6 7 8 9 10 11 12 13 14 15
480
FTUS41 KBTV 251736
TAFBTV
TAF
KBTV 251736Z 2518/2618 33005KT P6SM SCT025 BKN035
     FM252200 VRB03KT P6SM SKC
     FM260700 09003KT 3SM BR SKC
     FM261200 19006KT P6SM SCT100=

USA.gov is the U.S. government's official web portal to all federal, state and local government web resources and services.